Cranford, NJ (07016)

6:08 PM EST on February 07, 2016 (GMT -0500)
Hickory Hollow | | Change Station
CLOSE
Current Station
Personal Weather Station
Location: Cranford, NJ
Elevation: 79 ft
Nearby Weather Stations

Elev 79 ft 40.65 °N, 74.30 °W | Updated 7 minutes ago

Clear
Clear
38.8 °F
Feels Like 39 °F
N
0.0
Wind Variable Wind from SSW

Today
High -- | Low -- °F
--% Chance of Precip.
Yesterday
High -- | Low -- °F
Precip. -- in
Pressure 30.03 in
Visibility 10.0 miles
Clouds Clear
Windchill 39 °F
Dew Point 26 °F
Humidity 61%
Rainfall 0.00 in
Snow Depth Not available.
7:01 AM 5:21 PM
Waning Crescent, 1% visible
METAR KLDJ 072255Z AUTO 00000KT 10SM CLR 05/M02 A3003 RMK AO2 T00531025
Pressure 30.03 in
Visibility 10.0 miles
Clouds Clear
Windchill 39 °F
Dew Point 26 °F
Humidity 61%
Rainfall 0.00 in
Snow Depth Not available.
7:01 AM 5:21 PM
Waning Crescent, 1% visible
METAR KLDJ 072255Z AUTO 00000KT 10SM CLR 05/M02 A3003 RMK AO2 T00531025

10-Day Weather Forecast

Almanac

Astronomy

Feb. 07, 2016 Rise Set
Actual Time
Civil Twilight
Nautical Twilight
Astronomical Twilight
Moon
Length of Visible Light
Length of Day
Tomorrow will be .
, % of the Moon is Illuminated

Today's Extremes

State Highs State Lows

Community

WunderPhotos

Upload Photos

1,891,325 photos uploaded!

WunderBlog® & News

Nearby

Air Quality

  Air Quality AQ Index Pollutant
Not available.

Snow Depth

Station Depth Elevation

Earthquake Activity

City Distance Mag. Time & Date
Minimum magnitude displayed is 2.5.

Coastal Water Temperatures

Place Temperature

Stations

Nearby Weather Stations

Station Location Temp. Windchill Dew Point Humidity Wind Precip. Elev Updated Type
                   

Watches & Warnings

There are currently no watches in effect.